Terminal Aerodrome Forecast
Issued by NWS

Home | Current Version | Previous Version | Text Only | Print | Product List | Glossary On
Versions: 1 2 3 4 5 6 7 8 9 10 11 12 13
761
FTUS45 KABQ 241120
TAFSAF
TAF
KSAF 241120Z 2412/2512 20006KT P6SM BKN250
     FM241500 24015G25KT P6SM SCT250
     FM241800 25022G32KT P6SM SCT200
     FM242000 26027G40KT P6SM SCT090 SCT150
     FM250200 28012G20KT P6SM SCT090 BKN150=

USA.gov is the U.S. government's official web portal to all federal, state and local government web resources and services.